sensor_id;sensor_type;location;lat;lon;timestamp;P1;durP1;ratioP1;P2;durP2;ratioP2
24143;SDS011;12307;50.828;6.080;2022-08-01T00:00:12;0.85;;;0.85;;
24143;SDS011;12307;50.828;6.080;2022-08-01T00:02:38;0.50;;;0.50;;
24143;SDS011;12307;50.828;6.080;2022-08-01T00:05:05;0.70;;;0.70;;
24143;SDS011;12307;50.828;6.080;2022-08-01T00:07:32;0.70;;;0.70;;
24143;SDS011;12307;50.828;6.080;2022-08-01T00:09:58;0.70;;;0.70;;
24143;SDS011;12307;50.828;6.080;2022-08-01T00:12:25;2.00;;;0.80;;
24143;SDS011;12307;50.828;6.080;2022-08-01T00:14:50;3.50;;;1.05;;
24143;SDS011;12307;50.828;6.080;2022-08-01T00:17:16;0.80;;;0.80;;
24143;SDS011;12307;50.828;6.080;2022-08-01T00:19:42;0.77;;;0.77;;
24143;SDS011;12307;50.828;6.080;2022-08-01T00:22:07;0.65;;;0.65;;
24143;SDS011;12307;50.828;6.080;2022-08-01T00:24:33;0.73;;;0.73;;
24143;SDS011;12307;50.828;6.080;2022-08-01T00:26:59;0.77;;;0.75;;
24143;SDS011;12307;50.828;6.080;2022-08-01T00:29:26;0.80;;;0.80;;
24143;SDS011;12307;50.828;6.080;2022-08-01T00:31:51;0.77;;;0.77;;
24143;SDS011;12307;50.828;6.080;2022-08-01T00:34:17;0.70;;;0.70;;
24143;SDS011;12307;50.828;6.080;2022-08-01T00:36:43;0.95;;;0.73;;
24143;SDS011;12307;50.828;6.080;2022-08-01T00:39:08;0.70;;;0.70;;
24143;SDS011;12307;50.828;6.080;2022-08-01T00:41:34;0.85;;;0.70;;
24143;SDS011;12307;50.828;6.080;2022-08-01T00:44:01;0.70;;;0.70;;
24143;SDS011;12307;50.828;6.080;2022-08-01T00:46:30;0.85;;;0.85;;
24143;SDS011;12307;50.828;6.080;2022-08-01T00:48:56;0.60;;;0.60;;
24143;SDS011;12307;50.828;6.080;2022-08-01T00:51:22;0.70;;;0.70;;
24143;SDS011;12307;50.828;6.080;2022-08-01T00:53:48;0.85;;;0.60;;
24143;SDS011;12307;50.828;6.080;2022-08-01T00:56:14;0.70;;;0.70;;
24143;SDS011;12307;50.828;6.080;2022-08-01T00:58:40;0.80;;;0.80;;
24143;SDS011;12307;50.828;6.080;2022-08-01T01:01:06;0.85;;;0.80;;
24143;SDS011;12307;50.828;6.080;2022-08-01T01:03:33;0.80;;;0.80;;
24143;SDS011;12307;50.828;6.080;2022-08-01T01:06:01;0.70;;;0.70;;
24143;SDS011;12307;50.828;6.080;2022-08-01T01:08:39;0.70;;;0.70;;
24143;SDS011;12307;50.828;6.080;2022-08-01T01:11:09;0.63;;;0.63;;
24143;SDS011;12307;50.828;6.080;2022-08-01T01:13:41;0.73;;;0.73;;
24143;SDS011;12307;50.828;6.080;2022-08-01T01:16:09;0.90;;;0.85;;
24143;SDS011;12307;50.828;6.080;2022-08-01T01:18:40;0.73;;;0.70;;
24143;SDS011;12307;50.828;6.080;2022-08-01T01:21:13;0.70;;;0.70;;
24143;SDS011;12307;50.828;6.080;2022-08-01T01:23:58;0.73;;;0.65;;
24143;SDS011;12307;50.828;6.080;2022-08-01T01:26:36;0.70;;;0.70;;
24143;SDS011;12307;50.828;6.080;2022-08-01T01:29:11;1.08;;;0.68;;
24143;SDS011;12307;50.828;6.080;2022-08-01T01:31:42;0.80;;;0.77;;
24143;SDS011;12307;50.828;6.080;2022-08-01T01:34:11;0.70;;;0.70;;
24143;SDS011;12307;50.828;6.080;2022-08-01T01:36:39;0.70;;;0.70;;
24143;SDS011;12307;50.828;6.080;2022-08-01T01:39:06;0.60;;;0.60;;
24143;SDS011;12307;50.828;6.080;2022-08-01T01:41:32;0.70;;;0.60;;
24143;SDS011;12307;50.828;6.080;2022-08-01T01:44:01;0.80;;;0.80;;
24143;SDS011;12307;50.828;6.080;2022-08-01T01:46:30;1.23;;;0.60;;
24143;SDS011;12307;50.828;6.080;2022-08-01T01:48:57;0.95;;;0.80;;
24143;SDS011;12307;50.828;6.080;2022-08-01T01:51:25;0.60;;;0.60;;
24143;SDS011;12307;50.828;6.080;2022-08-01T01:53:52;0.68;;;0.68;;
24143;SDS011;12307;50.828;6.080;2022-08-01T01:56:19;0.80;;;0.80;;
24143;SDS011;12307;50.828;6.080;2022-08-01T01:58:48;0.65;;;0.65;;
24143;SDS011;12307;50.828;6.080;2022-08-01T02:01:16;0.70;;;0.70;;
24143;SDS011;12307;50.828;6.080;2022-08-01T02:03:44;0.70;;;0.70;;
24143;SDS011;12307;50.828;6.080;2022-08-01T02:06:12;0.80;;;0.80;;
24143;SDS011;12307;50.828;6.080;2022-08-01T02:08:39;0.70;;;0.70;;
24143;SDS011;12307;50.828;6.080;2022-08-01T02:11:06;0.90;;;0.70;;
24143;SDS011;12307;50.828;6.080;2022-08-01T02:13:44;0.60;;;0.60;;
24143;SDS011;12307;50.828;6.080;2022-08-01T02:16:14;0.70;;;0.70;;
24143;SDS011;12307;50.828;6.080;2022-08-01T02:18:41;0.57;;;0.57;;
24143;SDS011;12307;50.828;6.080;2022-08-01T02:21:09;0.70;;;0.70;;
24143;SDS011;12307;50.828;6.080;2022-08-01T02:23:39;0.80;;;0.80;;
24143;SDS011;12307;50.828;6.080;2022-08-01T02:26:07;1.00;;;0.70;;
24143;SDS011;12307;50.828;6.080;2022-08-01T02:28:40;0.77;;;0.70;;
24143;SDS011;12307;50.828;6.080;2022-08-01T02:31:13;0.70;;;0.70;;
24143;SDS011;12307;50.828;6.080;2022-08-01T02:33:42;0.77;;;0.77;;
24143;SDS011;12307;50.828;6.080;2022-08-01T02:36:12;0.60;;;0.60;;
24143;SDS011;12307;50.828;6.080;2022-08-01T02:38:42;0.63;;;0.63;;
24143;SDS011;12307;50.828;6.080;2022-08-01T02:41:10;0.68;;;0.68;;
24143;SDS011;12307;50.828;6.080;2022-08-01T02:43:42;0.80;;;0.60;;
24143;SDS011;12307;50.828;6.080;2022-08-01T02:46:11;1.30;;;0.70;;
24143;SDS011;12307;50.828;6.080;2022-08-01T02:48:42;0.80;;;0.80;;
24143;SDS011;12307;50.828;6.080;2022-08-01T02:51:11;0.68;;;0.60;;
24143;SDS011;12307;50.828;6.080;2022-08-01T02:53:38;0.63;;;0.63;;
24143;SDS011;12307;50.828;6.080;2022-08-01T02:56:07;0.73;;;0.60;;
24143;SDS011;12307;50.828;6.080;2022-08-01T02:58:34;0.65;;;0.65;;
24143;SDS011;12307;50.828;6.080;2022-08-01T03:01:01;0.70;;;0.60;;
24143;SDS011;12307;50.828;6.080;2022-08-01T03:03:27;0.60;;;0.60;;
24143;SDS011;12307;50.828;6.080;2022-08-01T03:05:54;0.63;;;0.60;;
24143;SDS011;12307;50.828;6.080;2022-08-01T03:08:22;0.70;;;0.70;;
24143;SDS011;12307;50.828;6.080;2022-08-01T03:10:50;0.70;;;0.70;;
24143;SDS011;12307;50.828;6.080;2022-08-01T03:13:17;0.63;;;0.63;;
24143;SDS011;12307;50.828;6.080;2022-08-01T03:15:44;0.75;;;0.75;;
24143;SDS011;12307;50.828;6.080;2022-08-01T03:18:10;1.05;;;0.80;;
24143;SDS011;12307;50.828;6.080;2022-08-01T03:20:38;0.80;;;0.80;;
24143;SDS011;12307;50.828;6.080;2022-08-01T03:23:05;0.63;;;0.60;;
24143;SDS011;12307;50.828;6.080;2022-08-01T03:25:35;0.70;;;0.70;;
24143;SDS011;12307;50.828;6.080;2022-08-01T03:28:03;0.70;;;0.70;;
24143;SDS011;12307;50.828;6.080;2022-08-01T03:30:31;0.73;;;0.73;;
24143;SDS011;12307;50.828;6.080;2022-08-01T03:32:58;0.85;;;0.73;;
24143;SDS011;12307;50.828;6.080;2022-08-01T03:35:25;0.60;;;0.60;;
24143;SDS011;12307;50.828;6.080;2022-08-01T03:37:54;0.80;;;0.80;;
24143;SDS011;12307;50.828;6.080;2022-08-01T03:40:22;0.60;;;0.57;;
24143;SDS011;12307;50.828;6.080;2022-08-01T03:42:54;0.77;;;0.77;;
24143;SDS011;12307;50.828;6.080;2022-08-01T03:45:25;0.60;;;0.60;;
24143;SDS011;12307;50.828;6.080;2022-08-01T03:47:56;0.60;;;0.60;;
24143;SDS011;12307;50.828;6.080;2022-08-01T03:50:24;0.90;;;0.70;;
24143;SDS011;12307;50.828;6.080;2022-08-01T03:52:51;1.42;;;0.80;;
24143;SDS011;12307;50.828;6.080;2022-08-01T03:55:19;0.80;;;0.80;;
24143;SDS011;12307;50.828;6.080;2022-08-01T03:57:47;0.70;;;0.70;;
24143;SDS011;12307;50.828;6.080;2022-08-01T04:00:14;0.93;;;0.90;;
24143;SDS011;12307;50.828;6.080;2022-08-01T04:02:43;0.90;;;0.90;;
24143;SDS011;12307;50.828;6.080;2022-08-01T04:05:10;0.80;;;0.80;;
24143;SDS011;12307;50.828;6.080;2022-08-01T04:07:36;0.95;;;0.65;;
24143;SDS011;12307;50.828;6.080;2022-08-01T04:10:02;0.93;;;0.70;;
24143;SDS011;12307;50.828;6.080;2022-08-01T04:12:28;1.27;;;0.70;;
24143;SDS011;12307;50.828;6.080;2022-08-01T04:14:54;0.65;;;0.65;;
24143;SDS011;12307;50.828;6.080;2022-08-01T04:17:21;0.60;;;0.60;;
24143;SDS011;12307;50.828;6.080;2022-08-01T04:19:46;1.10;;;0.75;;
24143;SDS011;12307;50.828;6.080;2022-08-01T04:22:13;0.47;;;0.47;;
24143;SDS011;12307;50.828;6.080;2022-08-01T04:24:40;0.70;;;0.70;;
24143;SDS011;12307;50.828;6.080;2022-08-01T04:27:08;1.77;;;0.60;;
24143;SDS011;12307;50.828;6.080;2022-08-01T04:29:38;0.70;;;0.70;;
24143;SDS011;12307;50.828;6.080;2022-08-01T04:32:05;0.93;;;0.80;;
24143;SDS011;12307;50.828;6.080;2022-08-01T04:34:36;0.50;;;0.50;;
24143;SDS011;12307;50.828;6.080;2022-08-01T04:37:05;0.60;;;0.60;;
24143;SDS011;12307;50.828;6.080;2022-08-01T04:39:34;0.65;;;0.65;;
24143;SDS011;12307;50.828;6.080;2022-08-01T04:42:02;0.88;;;0.80;;
24143;SDS011;12307;50.828;6.080;2022-08-01T04:44:30;0.80;;;0.65;;
24143;SDS011;12307;50.828;6.080;2022-08-01T04:46:57;0.80;;;0.80;;
24143;SDS011;12307;50.828;6.080;2022-08-01T04:49:24;0.63;;;0.60;;
24143;SDS011;12307;50.828;6.080;2022-08-01T04:51:51;0.60;;;0.60;;
24143;SDS011;12307;50.828;6.080;2022-08-01T04:54:23;0.70;;;0.70;;
24143;SDS011;12307;50.828;6.080;2022-08-01T04:56:49;0.82;;;0.70;;
24143;SDS011;12307;50.828;6.080;2022-08-01T04:59:14;0.55;;;0.52;;
24143;SDS011;12307;50.828;6.080;2022-08-01T05:02:10;0.60;;;0.60;;
24143;SDS011;12307;50.828;6.080;2022-08-01T05:04:37;0.73;;;0.73;;
24143;SDS011;12307;50.828;6.080;2022-08-01T05:07:06;0.70;;;0.70;;
24143;SDS011;12307;50.828;6.080;2022-08-01T05:09:32;0.60;;;0.60;;
24143;SDS011;12307;50.828;6.080;2022-08-01T05:11:59;1.67;;;0.70;;
24143;SDS011;12307;50.828;6.080;2022-08-01T05:14:26;0.52;;;0.52;;
24143;SDS011;12307;50.828;6.080;2022-08-01T05:16:53;0.70;;;0.70;;
24143;SDS011;12307;50.828;6.080;2022-08-01T05:19:18;0.70;;;0.70;;
24143;SDS011;12307;50.828;6.080;2022-08-01T05:21:44;0.65;;;0.57;;
24143;SDS011;12307;50.828;6.080;2022-08-01T05:24:11;0.70;;;0.70;;
24143;SDS011;12307;50.828;6.080;2022-08-01T05:26:37;0.75;;;0.75;;
24143;SDS011;12307;50.828;6.080;2022-08-01T05:29:03;0.77;;;0.77;;
24143;SDS011;12307;50.828;6.080;2022-08-01T05:31:29;0.75;;;0.70;;
24143;SDS011;12307;50.828;6.080;2022-08-01T05:33:56;0.95;;;0.60;;
24143;SDS011;12307;50.828;6.080;2022-08-01T05:36:21;0.70;;;0.70;;
24143;SDS011;12307;50.828;6.080;2022-08-01T05:38:47;0.85;;;0.70;;
24143;SDS011;12307;50.828;6.080;2022-08-01T05:41:14;0.70;;;0.70;;
24143;SDS011;12307;50.828;6.080;2022-08-01T05:43:40;1.10;;;0.77;;
24143;SDS011;12307;50.828;6.080;2022-08-01T05:46:05;1.48;;;0.60;;
24143;SDS011;12307;50.828;6.080;2022-08-01T05:48:31;0.70;;;0.70;;
24143;SDS011;12307;50.828;6.080;2022-08-01T05:50:57;0.57;;;0.57;;
24143;SDS011;12307;50.828;6.080;2022-08-01T05:53:24;1.52;;;0.70;;
24143;SDS011;12307;50.828;6.080;2022-08-01T05:55:50;0.80;;;0.60;;
24143;SDS011;12307;50.828;6.080;2022-08-01T05:58:17;0.50;;;0.50;;
24143;SDS011;12307;50.828;6.080;2022-08-01T06:00:43;0.77;;;0.77;;
24143;SDS011;12307;50.828;6.080;2022-08-01T06:03:08;0.68;;;0.68;;
24143;SDS011;12307;50.828;6.080;2022-08-01T06:05:36;0.70;;;0.63;;
24143;SDS011;12307;50.828;6.080;2022-08-01T06:08:02;0.65;;;0.63;;
24143;SDS011;12307;50.828;6.080;2022-08-01T06:10:28;0.63;;;0.63;;
24143;SDS011;12307;50.828;6.080;2022-08-01T06:12:53;0.70;;;0.70;;
24143;SDS011;12307;50.828;6.080;2022-08-01T06:15:20;1.20;;;0.80;;
24143;SDS011;12307;50.828;6.080;2022-08-01T06:17:46;0.68;;;0.68;;
24143;SDS011;12307;50.828;6.080;2022-08-01T06:20:12;1.45;;;0.80;;
24143;SDS011;12307;50.828;6.080;2022-08-01T06:22:37;0.90;;;0.70;;
24143;SDS011;12307;50.828;6.080;2022-08-01T06:25:03;0.98;;;0.80;;
24143;SDS011;12307;50.828;6.080;2022-08-01T06:27:30;1.33;;;0.90;;
24143;SDS011;12307;50.828;6.080;2022-08-01T06:29:59;0.90;;;0.70;;
24143;SDS011;12307;50.828;6.080;2022-08-01T06:32:26;0.65;;;0.60;;
24143;SDS011;12307;50.828;6.080;2022-08-01T06:34:52;0.63;;;0.63;;
24143;SDS011;12307;50.828;6.080;2022-08-01T06:37:17;1.00;;;1.00;;
24143;SDS011;12307;50.828;6.080;2022-08-01T06:39:43;1.02;;;0.80;;
24143;SDS011;12307;50.828;6.080;2022-08-01T06:42:09;2.58;;;0.80;;
24143;SDS011;12307;50.828;6.080;2022-08-01T06:44:35;1.38;;;0.90;;
24143;SDS011;12307;50.828;6.080;2022-08-01T06:47:01;1.05;;;0.80;;
24143;SDS011;12307;50.828;6.080;2022-08-01T06:49:28;0.60;;;0.60;;
24143;SDS011;12307;50.828;6.080;2022-08-01T06:51:54;1.10;;;0.90;;
24143;SDS011;12307;50.828;6.080;2022-08-01T06:54:19;1.00;;;0.90;;
24143;SDS011;12307;50.828;6.080;2022-08-01T06:56:46;1.20;;;0.90;;
24143;SDS011;12307;50.828;6.080;2022-08-01T06:59:11;0.95;;;0.93;;
24143;SDS011;12307;50.828;6.080;2022-08-01T07:01:37;1.60;;;0.95;;
24143;SDS011;12307;50.828;6.080;2022-08-01T07:04:03;0.95;;;0.80;;
24143;SDS011;12307;50.828;6.080;2022-08-01T07:06:30;1.73;;;1.10;;
24143;SDS011;12307;50.828;6.080;2022-08-01T07:08:56;1.65;;;1.08;;
24143;SDS011;12307;50.828;6.080;2022-08-01T07:11:23;0.70;;;0.70;;
24143;SDS011;12307;50.828;6.080;2022-08-01T07:13:49;1.15;;;0.80;;
24143;SDS011;12307;50.828;6.080;2022-08-01T07:16:15;2.00;;;1.23;;
24143;SDS011;12307;50.828;6.080;2022-08-01T07:18:41;1.50;;;1.35;;
24143;SDS011;12307;50.828;6.080;2022-08-01T07:21:07;1.40;;;1.20;;
24143;SDS011;12307;50.828;6.080;2022-08-01T07:23:34;2.30;;;1.30;;
24143;SDS011;12307;50.828;6.080;2022-08-01T07:26:00;2.58;;;1.35;;
24143;SDS011;12307;50.828;6.080;2022-08-01T07:28:27;4.05;;;1.98;;
24143;SDS011;12307;50.828;6.080;2022-08-01T07:30:53;3.13;;;2.10;;
24143;SDS011;12307;50.828;6.080;2022-08-01T07:33:18;3.42;;;2.88;;
24143;SDS011;12307;50.828;6.080;2022-08-01T07:35:44;3.42;;;2.65;;
24143;SDS011;12307;50.828;6.080;2022-08-01T07:38:10;4.53;;;2.83;;
24143;SDS011;12307;50.828;6.080;2022-08-01T07:40:37;3.40;;;3.10;;
24143;SDS011;12307;50.828;6.080;2022-08-01T07:43:03;4.78;;;2.90;;
24143;SDS011;12307;50.828;6.080;2022-08-01T07:45:28;5.85;;;2.95;;
24143;SDS011;12307;50.828;6.080;2022-08-01T07:47:55;4.47;;;3.35;;
24143;SDS011;12307;50.828;6.080;2022-08-01T07:50:21;4.30;;;3.55;;
24143;SDS011;12307;50.828;6.080;2022-08-01T07:52:46;5.25;;;3.45;;
24143;SDS011;12307;50.828;6.080;2022-08-01T07:55:12;4.10;;;3.15;;
24143;SDS011;12307;50.828;6.080;2022-08-01T07:57:39;5.10;;;3.50;;
24143;SDS011;12307;50.828;6.080;2022-08-01T08:00:07;4.75;;;3.38;;
24143;SDS011;12307;50.828;6.080;2022-08-01T08:02:34;5.55;;;3.38;;
24143;SDS011;12307;50.828;6.080;2022-08-01T08:05:00;5.38;;;4.13;;
24143;SDS011;12307;50.828;6.080;2022-08-01T08:07:26;5.43;;;3.83;;
24143;SDS011;12307;50.828;6.080;2022-08-01T08:09:51;5.82;;;4.07;;
24143;SDS011;12307;50.828;6.080;2022-08-01T08:12:17;4.57;;;3.40;;
24143;SDS011;12307;50.828;6.080;2022-08-01T08:14:44;4.85;;;3.72;;
24143;SDS011;12307;50.828;6.080;2022-08-01T08:17:10;5.93;;;4.47;;
24143;SDS011;12307;50.828;6.080;2022-08-01T08:19:36;5.32;;;4.25;;
24143;SDS011;12307;50.828;6.080;2022-08-01T08:22:03;5.15;;;3.92;;
24143;SDS011;12307;50.828;6.080;2022-08-01T08:24:29;5.93;;;4.20;;
24143;SDS011;12307;50.828;6.080;2022-08-01T08:26:55;7.63;;;4.82;;
24143;SDS011;12307;50.828;6.080;2022-08-01T08:29:22;6.65;;;4.15;;
24143;SDS011;12307;50.828;6.080;2022-08-01T08:31:49;6.28;;;4.70;;
24143;SDS011;12307;50.828;6.080;2022-08-01T08:34:16;7.30;;;4.28;;
24143;SDS011;12307;50.828;6.080;2022-08-01T08:36:42;5.45;;;4.20;;
24143;SDS011;12307;50.828;6.080;2022-08-01T08:39:08;12.15;;;4.47;;
24143;SDS011;12307;50.828;6.080;2022-08-01T08:41:34;5.20;;;4.05;;
24143;SDS011;12307;50.828;6.080;2022-08-01T08:44:00;4.95;;;4.18;;
24143;SDS011;12307;50.828;6.080;2022-08-01T08:46:27;4.65;;;3.90;;
24143;SDS011;12307;50.828;6.080;2022-08-01T08:48:55;6.78;;;4.00;;
24143;SDS011;12307;50.828;6.080;2022-08-01T08:51:22;6.15;;;4.10;;
24143;SDS011;12307;50.828;6.080;2022-08-01T08:53:50;5.00;;;3.90;;
24143;SDS011;12307;50.828;6.080;2022-08-01T08:56:19;4.95;;;3.67;;
24143;SDS011;12307;50.828;6.080;2022-08-01T08:58:46;7.53;;;4.20;;
24143;SDS011;12307;50.828;6.080;2022-08-01T09:01:12;7.07;;;4.45;;
24143;SDS011;12307;50.828;6.080;2022-08-01T09:03:38;8.20;;;5.07;;
24143;SDS011;12307;50.828;6.080;2022-08-01T09:06:06;5.68;;;4.30;;
24143;SDS011;12307;50.828;6.080;2022-08-01T09:08:32;9.75;;;5.22;;
24143;SDS011;12307;50.828;6.080;2022-08-01T09:10:58;6.55;;;4.45;;
24143;SDS011;12307;50.828;6.080;2022-08-01T09:13:24;7.07;;;4.63;;
24143;SDS011;12307;50.828;6.080;2022-08-01T09:15:50;6.35;;;4.53;;
24143;SDS011;12307;50.828;6.080;2022-08-01T09:18:26;6.32;;;4.80;;
24143;SDS011;12307;50.828;6.080;2022-08-01T09:21:08;5.95;;;5.00;;
24143;SDS011;12307;50.828;6.080;2022-08-01T09:23:36;6.65;;;4.75;;
24143;SDS011;12307;50.828;6.080;2022-08-01T09:26:05;5.38;;;4.45;;
24143;SDS011;12307;50.828;6.080;2022-08-01T09:28:31;5.82;;;4.45;;
24143;SDS011;12307;50.828;6.080;2022-08-01T09:30:58;6.53;;;4.80;;
24143;SDS011;12307;50.828;6.080;2022-08-01T09:33:38;5.72;;;4.28;;
24143;SDS011;12307;50.828;6.080;2022-08-01T09:36:17;6.38;;;4.70;;
24143;SDS011;12307;50.828;6.080;2022-08-01T09:38:43;5.95;;;4.80;;
24143;SDS011;12307;50.828;6.080;2022-08-01T09:41:08;5.13;;;4.43;;
24143;SDS011;12307;50.828;6.080;2022-08-01T09:43:36;6.53;;;4.32;;
24143;SDS011;12307;50.828;6.080;2022-08-01T09:46:04;5.22;;;4.60;;
24143;SDS011;12307;50.828;6.080;2022-08-01T09:48:33;4.80;;;4.22;;
24143;SDS011;12307;50.828;6.080;2022-08-01T09:50:59;4.93;;;4.43;;
24143;SDS011;12307;50.828;6.080;2022-08-01T09:53:26;5.43;;;4.45;;
24143;SDS011;12307;50.828;6.080;2022-08-01T09:56:10;7.78;;;4.97;;
24143;SDS011;12307;50.828;6.080;2022-08-01T09:58:48;6.32;;;4.80;;
24143;SDS011;12307;50.828;6.080;2022-08-01T10:01:18;6.43;;;4.80;;
24143;SDS011;12307;50.828;6.080;2022-08-01T10:03:46;5.35;;;4.85;;
24143;SDS011;12307;50.828;6.080;2022-08-01T10:06:18;5.20;;;4.60;;
24143;SDS011;12307;50.828;6.080;2022-08-01T10:08:49;6.28;;;4.78;;
24143;SDS011;12307;50.828;6.080;2022-08-01T10:11:15;6.25;;;4.40;;
24143;SDS011;12307;50.828;6.080;2022-08-01T10:13:41;7.13;;;4.80;;
24143;SDS011;12307;50.828;6.080;2022-08-01T10:16:07;6.13;;;4.70;;
24143;SDS011;12307;50.828;6.080;2022-08-01T10:18:34;6.20;;;4.78;;
24143;SDS011;12307;50.828;6.080;2022-08-01T10:21:01;5.57;;;4.53;;
24143;SDS011;12307;50.828;6.080;2022-08-01T10:23:30;5.60;;;4.40;;
24143;SDS011;12307;50.828;6.080;2022-08-01T10:26:00;5.82;;;4.68;;
24143;SDS011;12307;50.828;6.080;2022-08-01T10:28:28;6.15;;;4.18;;
24143;SDS011;12307;50.828;6.080;2022-08-01T10:30:55;4.63;;;4.03;;
24143;SDS011;12307;50.828;6.080;2022-08-01T10:33:22;7.72;;;4.50;;
24143;SDS011;12307;50.828;6.080;2022-08-01T10:35:49;5.85;;;4.65;;
24143;SDS011;12307;50.828;6.080;2022-08-01T10:38:15;5.90;;;4.60;;
24143;SDS011;12307;50.828;6.080;2022-08-01T10:40:42;6.35;;;4.72;;
24143;SDS011;12307;50.828;6.080;2022-08-01T10:43:10;5.22;;;4.47;;
24143;SDS011;12307;50.828;6.080;2022-08-01T10:45:36;5.93;;;5.18;;
24143;SDS011;12307;50.828;6.080;2022-08-01T10:48:04;6.35;;;4.65;;
24143;SDS011;12307;50.828;6.080;2022-08-01T10:50:36;5.60;;;4.70;;
24143;SDS011;12307;50.828;6.080;2022-08-01T10:53:11;6.20;;;4.97;;
24143;SDS011;12307;50.828;6.080;2022-08-01T10:55:48;6.28;;;4.72;;
24143;SDS011;12307;50.828;6.080;2022-08-01T10:58:24;4.85;;;4.45;;
24143;SDS011;12307;50.828;6.080;2022-08-01T11:01:12;5.63;;;4.13;;
24143;SDS011;12307;50.828;6.080;2022-08-01T11:03:40;6.32;;;4.82;;
24143;SDS011;12307;50.828;6.080;2022-08-01T11:06:06;6.28;;;4.65;;
24143;SDS011;12307;50.828;6.080;2022-08-01T11:08:33;5.10;;;4.60;;
24143;SDS011;12307;50.828;6.080;2022-08-01T11:11:03;5.80;;;4.80;;
24143;SDS011;12307;50.828;6.080;2022-08-01T11:16:34;4.90;;;4.35;;
24143;SDS011;12307;50.828;6.080;2022-08-01T11:19:01;5.18;;;4.07;;
24143;SDS011;12307;50.828;6.080;2022-08-01T11:27:22;4.47;;;4.07;;
24143;SDS011;12307;50.828;6.080;2022-08-01T11:32:51;4.43;;;3.92;;
24143;SDS011;12307;50.828;6.080;2022-08-01T11:35:19;4.80;;;4.32;;
24143;SDS011;12307;50.828;6.080;2022-08-01T11:37:52;6.40;;;4.55;;
24143;SDS011;12307;50.828;6.080;2022-08-01T11:40:20;5.75;;;4.00;;
24143;SDS011;12307;50.828;6.080;2022-08-01T11:42:47;4.80;;;4.40;;
24143;SDS011;12307;50.828;6.080;2022-08-01T11:45:14;6.13;;;4.18;;
24143;SDS011;12307;50.828;6.080;2022-08-01T11:47:44;5.70;;;4.43;;
24143;SDS011;12307;50.828;6.080;2022-08-01T11:50:31;4.68;;;4.28;;
24143;SDS011;12307;50.828;6.080;2022-08-01T11:53:01;4.90;;;4.40;;
24143;SDS011;12307;50.828;6.080;2022-08-01T11:55:28;4.68;;;4.22;;
24143;SDS011;12307;50.828;6.080;2022-08-01T11:57:58;4.90;;;4.30;;
24143;SDS011;12307;50.828;6.080;2022-08-01T12:00:26;4.30;;;3.90;;
24143;SDS011;12307;50.828;6.080;2022-08-01T12:02:57;5.20;;;4.70;;
24143;SDS011;12307;50.828;6.080;2022-08-01T12:05:25;4.93;;;4.22;;
24143;SDS011;12307;50.828;6.080;2022-08-01T12:07:51;4.85;;;4.25;;
24143;SDS011;12307;50.828;6.080;2022-08-01T12:10:18;4.63;;;4.20;;
24143;SDS011;12307;50.828;6.080;2022-08-01T12:12:46;5.15;;;4.65;;
24143;SDS011;12307;50.828;6.080;2022-08-01T12:15:16;5.10;;;3.83;;
24143;SDS011;12307;50.828;6.080;2022-08-01T12:17:42;5.05;;;4.50;;
24143;SDS011;12307;50.828;6.080;2022-08-01T12:20:12;4.90;;;4.40;;
24143;SDS011;12307;50.828;6.080;2022-08-01T12:22:39;5.85;;;4.20;;
24143;SDS011;12307;50.828;6.080;2022-08-01T12:25:06;4.20;;;3.80;;
24143;SDS011;12307;50.828;6.080;2022-08-01T12:27:33;4.20;;;3.80;;
24143;SDS011;12307;50.828;6.080;2022-08-01T12:30:00;5.32;;;4.10;;
24143;SDS011;12307;50.828;6.080;2022-08-01T12:32:27;4.60;;;4.00;;
24143;SDS011;12307;50.828;6.080;2022-08-01T12:34:56;4.15;;;3.70;;
24143;SDS011;12307;50.828;6.080;2022-08-01T12:37:27;3.65;;;3.20;;
24143;SDS011;12307;50.828;6.080;2022-08-01T12:39:53;4.43;;;4.03;;
24143;SDS011;12307;50.828;6.080;2022-08-01T12:42:18;4.38;;;3.97;;
24143;SDS011;12307;50.828;6.080;2022-08-01T12:44:45;4.95;;;4.22;;
24143;SDS011;12307;50.828;6.080;2022-08-01T12:47:14;3.55;;;3.25;;
24143;SDS011;12307;50.828;6.080;2022-08-01T12:49:41;3.70;;;3.40;;
24143;SDS011;12307;50.828;6.080;2022-08-01T12:52:08;4.47;;;4.07;;
24143;SDS011;12307;50.828;6.080;2022-08-01T12:57:35;3.90;;;3.60;;
24143;SDS011;12307;50.828;6.080;2022-08-01T13:00:07;3.85;;;3.55;;
24143;SDS011;12307;50.828;6.080;2022-08-01T13:02:38;4.38;;;3.33;;
24143;SDS011;12307;50.828;6.080;2022-08-01T13:05:05;3.85;;;3.40;;
24143;SDS011;12307;50.828;6.080;2022-08-01T13:07:39;3.75;;;3.38;;
24143;SDS011;12307;50.828;6.080;2022-08-01T13:10:08;4.10;;;3.35;;
24143;SDS011;12307;50.828;6.080;2022-08-01T13:12:35;3.85;;;3.40;;
24143;SDS011;12307;50.828;6.080;2022-08-01T13:15:15;3.70;;;3.40;;
24143;SDS011;12307;50.828;6.080;2022-08-01T13:17:46;3.60;;;3.30;;
24143;SDS011;12307;50.828;6.080;2022-08-01T13:20:20;4.57;;;3.08;;
24143;SDS011;12307;50.828;6.080;2022-08-01T13:22:50;3.45;;;3.15;;
24143;SDS011;12307;50.828;6.080;2022-08-01T13:25:18;3.53;;;3.20;;
24143;SDS011;12307;50.828;6.080;2022-08-01T13:27:44;3.75;;;3.25;;
24143;SDS011;12307;50.828;6.080;2022-08-01T13:30:10;4.10;;;3.10;;
24143;SDS011;12307;50.828;6.080;2022-08-01T13:32:37;3.50;;;3.20;;
24143;SDS011;12307;50.828;6.080;2022-08-01T13:35:04;3.75;;;2.75;;
24143;SDS011;12307;50.828;6.080;2022-08-01T13:37:31;3.40;;;3.10;;
24143;SDS011;12307;50.828;6.080;2022-08-01T13:39:56;3.80;;;3.17;;
24143;SDS011;12307;50.828;6.080;2022-08-01T13:42:23;3.28;;;2.92;;
24143;SDS011;12307;50.828;6.080;2022-08-01T13:44:49;4.28;;;2.83;;
24143;SDS011;12307;50.828;6.080;2022-08-01T13:47:15;2.70;;;2.50;;
24143;SDS011;12307;50.828;6.080;2022-08-01T13:49:41;2.50;;;2.30;;
24143;SDS011;12307;50.828;6.080;2022-08-01T13:52:06;2.72;;;2.53;;
24143;SDS011;12307;50.828;6.080;2022-08-01T13:54:32;3.00;;;2.70;;
24143;SDS011;12307;50.828;6.080;2022-08-01T13:56:58;2.90;;;2.60;;
24143;SDS011;12307;50.828;6.080;2022-08-01T13:59:25;2.45;;;2.25;;
24143;SDS011;12307;50.828;6.080;2022-08-01T14:01:51;2.65;;;2.33;;
24143;SDS011;12307;50.828;6.080;2022-08-01T14:04:17;2.85;;;2.65;;
24143;SDS011;12307;50.828;6.080;2022-08-01T14:06:43;3.25;;;2.40;;
24143;SDS011;12307;50.828;6.080;2022-08-01T14:09:09;3.67;;;2.83;;
24143;SDS011;12307;50.828;6.080;2022-08-01T14:11:35;2.65;;;2.45;;
24143;SDS011;12307;50.828;6.080;2022-08-01T14:14:01;3.20;;;2.70;;
24143;SDS011;12307;50.828;6.080;2022-08-01T14:16:28;2.60;;;2.40;;
24143;SDS011;12307;50.828;6.080;2022-08-01T14:18:54;2.58;;;2.38;;
24143;SDS011;12307;50.828;6.080;2022-08-01T14:21:20;3.83;;;2.80;;
24143;SDS011;12307;50.828;6.080;2022-08-01T14:23:45;3.25;;;2.78;;
24143;SDS011;12307;50.828;6.080;2022-08-01T14:26:11;3.45;;;2.80;;
24143;SDS011;12307;50.828;6.080;2022-08-01T14:28:37;3.03;;;2.78;;
24143;SDS011;12307;50.828;6.080;2022-08-01T14:31:04;3.70;;;3.10;;
24143;SDS011;12307;50.828;6.080;2022-08-01T14:33:34;4.88;;;2.65;;
24143;SDS011;12307;50.828;6.080;2022-08-01T14:36:00;3.45;;;2.53;;
24143;SDS011;12307;50.828;6.080;2022-08-01T14:38:26;2.63;;;2.42;;
24143;SDS011;12307;50.828;6.080;2022-08-01T14:40:52;2.70;;;2.50;;
24143;SDS011;12307;50.828;6.080;2022-08-01T14:43:18;2.97;;;2.58;;
24143;SDS011;12307;50.828;6.080;2022-08-01T14:45:44;4.13;;;2.60;;
24143;SDS011;12307;50.828;6.080;2022-08-01T14:48:10;3.15;;;2.60;;
24143;SDS011;12307;50.828;6.080;2022-08-01T14:50:37;3.05;;;2.58;;
24143;SDS011;12307;50.828;6.080;2022-08-01T14:53:03;3.63;;;2.50;;
24143;SDS011;12307;50.828;6.080;2022-08-01T14:55:28;2.70;;;2.50;;
24143;SDS011;12307;50.828;6.080;2022-08-01T14:57:54;2.65;;;2.40;;
24143;SDS011;12307;50.828;6.080;2022-08-01T15:00:20;3.75;;;2.60;;
24143;SDS011;12307;50.828;6.080;2022-08-01T15:02:46;3.30;;;2.40;;
24143;SDS011;12307;50.828;6.080;2022-08-01T15:05:12;4.65;;;2.20;;